createdAt,value
2019-02-23T00:00:52.362Z,9.83
2019-02-23T00:03:21.263Z,10.75
2019-02-23T00:05:50.086Z,10.53
2019-02-23T00:08:19.019Z,8.93
2019-02-23T00:10:47.922Z,9.33
2019-02-23T00:13:16.886Z,7.97
2019-02-23T00:15:45.862Z,10.20
2019-02-23T00:18:14.721Z,10.05
2019-02-23T00:20:43.701Z,9.75
2019-02-23T00:23:12.722Z,9.00
2019-02-23T00:25:42.038Z,9.75
2019-02-23T00:28:11.027Z,10.43
2019-02-23T00:30:39.937Z,10.43
2019-02-23T00:33:08.865Z,11.22
2019-02-23T00:35:37.778Z,10.03
2019-02-23T00:38:06.709Z,10.28
2019-02-23T00:40:35.622Z,10.40
2019-02-23T00:43:04.577Z,10.08
2019-02-23T00:45:33.518Z,9.33
2019-02-23T00:48:02.500Z,9.80
2019-02-23T00:50:31.489Z,10.08
2019-02-23T00:53:00.511Z,11.78
2019-02-23T00:55:29.440Z,9.65
2019-02-23T00:57:58.310Z,12.60
2019-02-23T01:00:27.198Z,10.05
2019-02-23T01:02:56.127Z,9.03
2019-02-23T01:05:25.182Z,11.08
2019-02-23T01:07:54.301Z,9.03
2019-02-23T01:10:23.366Z,9.25
2019-02-23T01:12:52.345Z,10.23
2019-02-23T01:15:21.389Z,11.35
2019-02-23T01:17:50.308Z,11.35
2019-02-23T01:20:19.251Z,10.53
2019-02-23T01:22:48.278Z,10.30
2019-02-23T01:25:17.282Z,12.33
2019-02-23T01:27:46.241Z,13.40
2019-02-23T01:30:15.297Z,9.98
2019-02-23T01:32:44.173Z,10.65
2019-02-23T01:35:13.144Z,10.38
2019-02-23T01:37:45.241Z,11.28
2019-02-23T01:40:14.275Z,10.88
2019-02-23T01:42:43.230Z,13.22
2019-02-23T01:45:12.334Z,12.07
2019-02-23T01:47:41.334Z,12.07
2019-02-23T01:50:10.321Z,14.10
2019-02-23T01:52:39.312Z,12.65
2019-02-23T01:55:09.129Z,11.75
2019-02-23T01:57:38.128Z,10.80
2019-02-23T02:00:10.537Z,11.38
2019-02-23T02:02:41.886Z,11.35
2019-02-23T02:05:10.930Z,10.98
2019-02-23T02:07:39.941Z,10.90
2019-02-23T02:10:10.704Z,9.30
2019-02-23T02:12:39.804Z,10.23
2019-02-23T02:15:11.207Z,10.68
2019-02-23T02:17:40.434Z,12.28
2019-02-23T02:20:11.394Z,11.48
2019-02-23T02:22:40.261Z,10.23
2019-02-23T02:25:09.451Z,11.10
2019-02-23T02:27:38.368Z,12.18
2019-02-23T02:30:09.055Z,11.00
2019-02-23T02:32:37.908Z,11.93
2019-02-23T02:35:07.515Z,11.90
2019-02-23T02:37:36.498Z,11.75
2019-02-23T02:40:05.746Z,13.43
2019-02-23T02:42:34.813Z,10.65
2019-02-23T02:45:03.985Z,10.85
2019-02-23T02:47:32.955Z,9.85
2019-02-23T02:50:05.835Z,10.05
2019-02-23T02:52:34.877Z,9.43
2019-02-23T02:55:04.052Z,10.65
2019-02-23T02:57:33.011Z,12.33
2019-02-23T03:00:01.833Z,10.13
2019-02-23T03:02:30.694Z,10.85
2019-02-23T03:04:59.513Z,9.38
2019-02-23T03:07:28.414Z,10.40
2019-02-23T03:09:57.365Z,9.10
2019-02-23T03:12:26.262Z,9.88
2019-02-23T03:14:55.217Z,8.60
2019-02-23T03:17:24.250Z,9.15
2019-02-23T03:19:53.117Z,8.78
2019-02-23T03:22:22.050Z,10.65
2019-02-23T03:24:51.013Z,7.15
2019-02-23T03:27:19.922Z,8.23
2019-02-23T03:29:48.790Z,12.93
2019-02-23T03:32:19.873Z,8.55
2019-02-23T03:34:48.763Z,8.28
2019-02-23T03:37:17.710Z,7.05
2019-02-23T03:39:46.783Z,6.35
2019-02-23T03:42:15.763Z,6.92
2019-02-23T03:44:44.735Z,10.15
2019-02-23T03:47:13.701Z,6.60
2019-02-23T03:49:44.573Z,8.93
2019-02-23T03:52:13.565Z,8.50
2019-02-23T03:54:42.661Z,7.40
2019-02-23T03:57:11.494Z,6.92
2019-02-23T03:59:40.437Z,7.53
2019-02-23T04:02:09.238Z,5.53
2019-02-23T04:04:38.096Z,7.33
2019-02-23T04:07:06.860Z,6.58
2019-02-23T04:09:35.720Z,7.10
2019-02-23T04:12:04.587Z,7.30
2019-02-23T04:14:33.621Z,7.75
2019-02-23T04:17:02.582Z,6.12
2019-02-23T04:19:31.348Z,9.13
2019-02-23T04:22:00.242Z,6.95
2019-02-23T04:24:29.084Z,7.10
2019-02-23T04:26:57.981Z,6.25
2019-02-23T04:29:26.941Z,7.87
2019-02-23T04:31:55.754Z,7.50
2019-02-23T04:34:24.564Z,5.95
2019-02-23T04:36:53.472Z,7.17
2019-02-23T04:39:22.350Z,6.47
2019-02-23T04:41:51.341Z,5.40
2019-02-23T04:44:22.399Z,6.33
2019-02-23T04:46:51.333Z,5.70
2019-02-23T04:49:20.306Z,5.47
2019-02-23T04:51:49.344Z,5.45
2019-02-23T04:54:18.168Z,7.12
2019-02-23T04:56:47.004Z,5.15
2019-02-23T04:59:15.787Z,6.03
2019-02-23T05:01:44.622Z,6.25
2019-02-23T05:04:13.510Z,6.33
2019-02-23T05:06:42.538Z,5.80
2019-02-23T05:09:11.468Z,5.83
2019-02-23T05:11:40.496Z,5.70
2019-02-23T05:14:09.366Z,5.45
2019-02-23T05:16:38.259Z,5.12
2019-02-23T05:19:07.102Z,5.33
2019-02-23T05:21:36.013Z,8.35
2019-02-23T05:24:04.884Z,4.95
2019-02-23T05:26:33.697Z,4.55
2019-02-23T05:29:02.530Z,5.75
2019-02-23T05:31:31.396Z,5.08
2019-02-23T05:34:00.329Z,4.95
2019-02-23T05:36:29.351Z,4.95
2019-02-23T05:38:58.202Z,4.37
2019-02-23T05:41:27.141Z,5.62
2019-02-23T05:43:56.111Z,4.37
2019-02-23T05:46:25.029Z,6.10
2019-02-23T05:48:53.818Z,5.70
2019-02-23T05:51:22.659Z,7.65
2019-02-23T05:53:51.449Z,5.92
2019-02-23T05:56:20.376Z,6.00
2019-02-23T05:58:49.333Z,5.17
2019-02-23T06:01:18.166Z,5.45
2019-02-23T06:03:47.008Z,6.72
2019-02-23T06:06:15.865Z,6.78
2019-02-23T06:08:44.668Z,9.90
2019-02-23T06:11:13.512Z,5.10
2019-02-23T06:13:42.346Z,5.65
2019-02-23T06:16:11.252Z,4.83
2019-02-23T06:18:40.487Z,4.35
2019-02-23T06:21:09.283Z,4.35
2019-02-23T06:23:41.289Z,4.12
2019-02-23T06:26:10.386Z,3.47
2019-02-23T06:28:39.391Z,3.95
2019-02-23T06:31:08.250Z,4.72
2019-02-23T06:33:37.092Z,5.90
2019-02-23T06:36:06.283Z,3.05
2019-02-23T06:38:35.263Z,3.50
2019-02-23T06:41:04.607Z,4.30
2019-02-23T06:43:33.552Z,4.25
2019-02-23T06:46:02.417Z,3.65
2019-02-23T06:48:31.214Z,5.58
2019-02-23T06:51:00.018Z,3.65
2019-02-23T06:53:28.853Z,4.35
2019-02-23T06:55:57.733Z,4.47
2019-02-23T06:58:26.545Z,5.17
2019-02-23T07:00:55.372Z,4.72
2019-02-23T07:03:24.284Z,6.37
2019-02-23T07:05:53.142Z,4.47
2019-02-23T07:08:22.046Z,3.40
2019-02-23T07:10:50.920Z,3.77
2019-02-23T07:13:19.862Z,3.72
2019-02-23T07:15:48.749Z,2.55
2019-02-23T07:18:17.757Z,4.10
2019-02-23T07:20:46.673Z,3.22
2019-02-23T07:23:15.587Z,4.20
2019-02-23T07:25:44.552Z,4.05
2019-02-23T07:28:13.346Z,3.12
2019-02-23T07:30:42.216Z,3.27
2019-02-23T07:33:11.230Z,3.58
2019-02-23T07:35:40.033Z,3.62
2019-02-23T07:38:08.898Z,3.52
2019-02-23T07:40:37.878Z,3.62
2019-02-23T07:43:06.775Z,2.12
2019-02-23T07:45:35.610Z,3.70
2019-02-23T07:48:04.528Z,4.90
2019-02-23T07:50:33.404Z,1.90
2019-02-23T07:53:02.366Z,2.03
2019-02-23T07:55:31.761Z,2.10
2019-02-23T07:58:00.730Z,2.07
2019-02-23T08:00:29.644Z,2.93
2019-02-23T08:03:00.059Z,3.43
2019-02-23T08:05:29.080Z,6.40
2019-02-23T08:07:58.042Z,3.30
2019-02-23T08:10:27.037Z,3.90
2019-02-23T08:12:55.943Z,3.63
2019-02-23T08:15:26.328Z,3.10
2019-02-23T08:17:55.324Z,12.53
2019-02-23T08:20:24.241Z,14.23
2019-02-23T08:22:53.191Z,6.80
2019-02-23T08:25:22.093Z,6.47
2019-02-23T08:27:50.982Z,6.67
2019-02-23T08:30:19.914Z,6.00
2019-02-23T08:32:48.839Z,13.00
2019-02-23T08:35:17.640Z,6.77
2019-02-23T08:37:46.492Z,3.30
2019-02-23T08:40:15.679Z,4.10
2019-02-23T08:42:44.624Z,2.30
2019-02-23T08:45:13.501Z,3.80
2019-02-23T08:47:42.460Z,1.67
2019-02-23T08:50:12.273Z,1.60
2019-02-23T08:52:48.660Z,1.50
2019-02-23T08:55:11.668Z,1.83
2019-02-23T08:57:40.663Z,1.47
2019-02-23T09:00:12.604Z,1.20
2019-02-23T09:02:41.731Z,1.53
2019-02-23T09:05:11.251Z,1.50
2019-02-23T09:07:40.159Z,1.30
2019-02-23T09:10:10.476Z,1.67
2019-02-23T09:12:40.493Z,1.70
2019-02-23T09:15:09.946Z,1.73
2019-02-23T09:17:38.874Z,1.60
2019-02-23T09:20:09.246Z,1.30
2019-02-23T09:22:38.214Z,1.80
2019-02-23T09:25:07.409Z,1.30
2019-02-23T09:27:37.053Z,3.60
2019-02-23T09:30:06.646Z,2.60
2019-02-23T09:32:35.896Z,2.00
2019-02-23T09:35:05.471Z,2.20
2019-02-23T09:37:34.393Z,2.93
2019-02-23T09:40:03.433Z,2.93
2019-02-23T09:42:32.230Z,3.80
2019-02-23T09:45:01.042Z,3.27
2019-02-23T09:47:29.829Z,2.80
2019-02-23T09:49:58.706Z,3.07
2019-02-23T09:52:27.578Z,3.00
2019-02-23T09:54:56.393Z,3.00
2019-02-23T09:57:27.348Z,3.50
2019-02-23T09:59:56.291Z,2.77
2019-02-23T10:02:25.357Z,3.10
2019-02-23T10:04:54.347Z,4.10
2019-02-23T10:07:23.262Z,3.47
2019-02-23T10:09:52.122Z,3.57
2019-02-23T10:12:21.046Z,3.00
2019-02-23T10:14:50.106Z,3.50
2019-02-23T10:17:19.053Z,4.00
2019-02-23T10:19:48.862Z,5.13
2019-02-23T10:22:17.719Z,4.90
2019-02-23T10:24:46.558Z,4.53
2019-02-23T10:27:15.340Z,4.80
2019-02-23T10:29:44.330Z,5.80
2019-02-23T10:32:13.193Z,5.70
2019-02-23T10:34:41.936Z,5.63
2019-02-23T10:37:10.737Z,6.43
2019-02-23T10:39:39.504Z,6.70
2019-02-23T10:42:08.602Z,6.80
2019-02-23T10:44:38.244Z,6.57
2019-02-23T10:47:07.109Z,6.20
2019-02-23T10:49:35.896Z,4.93
2019-02-23T10:52:04.790Z,5.07
2019-02-23T10:54:33.626Z,4.67
2019-02-23T10:57:02.439Z,5.47
2019-02-23T10:59:31.336Z,5.33
2019-02-23T11:02:00.266Z,5.40
2019-02-23T11:04:29.092Z,5.73
2019-02-23T11:06:57.874Z,6.93
2019-02-23T11:09:31.416Z,7.23
2019-02-23T11:12:00.191Z,6.80
2019-02-23T11:14:29.105Z,7.50
2019-02-23T11:16:57.988Z,7.37
2019-02-23T11:19:26.817Z,8.60
2019-02-23T11:21:55.709Z,6.80
2019-02-23T11:24:24.572Z,6.77
2019-02-23T11:26:53.449Z,7.77
2019-02-23T11:29:22.355Z,8.30
2019-02-23T11:31:51.173Z,7.10
2019-02-23T11:34:20.113Z,7.07
2019-02-23T11:36:48.899Z,7.40
2019-02-23T11:39:18.023Z,9.13
2019-02-23T11:41:46.824Z,6.00
2019-02-23T11:44:15.624Z,6.97
2019-02-23T11:46:59.909Z,6.63
2019-02-23T11:49:16.793Z,5.93
2019-02-23T11:51:45.666Z,5.50
2019-02-23T11:54:14.512Z,4.70
2019-02-23T11:56:46.314Z,5.03
2019-02-23T11:59:15.157Z,4.67
2019-02-23T12:01:46.356Z,5.63
2019-02-23T12:04:15.116Z,5.97
2019-02-23T12:06:43.957Z,6.00
2019-02-23T12:09:12.707Z,6.53
2019-02-23T12:11:41.634Z,6.60
2019-02-23T12:14:10.386Z,8.37
2019-02-23T12:16:39.353Z,8.17
2019-02-23T12:19:08.119Z,7.90
2019-02-23T12:21:37.044Z,7.97
2019-02-23T12:24:06.524Z,7.60
2019-02-23T12:26:35.507Z,7.97
2019-02-23T12:29:06.706Z,7.53
2019-02-23T12:31:35.658Z,8.13
2019-02-23T12:34:04.526Z,7.53
2019-02-23T12:36:33.298Z,7.23
2019-02-23T12:39:02.054Z,7.20
2019-02-23T12:41:30.838Z,8.33
2019-02-23T12:43:59.597Z,7.93
2019-02-23T12:46:28.452Z,7.40
2019-02-23T12:48:57.214Z,7.60
2019-02-23T12:51:25.974Z,9.03
2019-02-23T12:53:54.746Z,9.53
2019-02-23T12:56:23.528Z,8.00
2019-02-23T12:58:52.302Z,7.10
2019-02-23T13:01:21.247Z,7.97
2019-02-23T13:03:50.121Z,4.80
2019-02-23T13:06:25.194Z,3.53
2019-02-23T13:09:16.050Z,6.43
2019-02-23T13:11:48.447Z,4.90
2019-02-23T13:14:36.530Z,5.47
2019-02-23T13:17:38.089Z,4.40
2019-02-23T13:20:43.526Z,4.83
2019-02-23T13:24:12.052Z,3.40
2019-02-23T13:27:34.357Z,2.57
2019-02-23T13:30:31.140Z,4.00
2019-02-23T13:33:29.286Z,3.13
2019-02-23T13:36:30.273Z,2.33
2019-02-23T13:39:23.904Z,2.23
2019-02-23T13:42:08.580Z,2.17
2019-02-23T13:45:20.537Z,1.90
2019-02-23T13:48:17.720Z,2.00
2019-02-23T13:51:49.083Z,2.60
2019-02-23T13:54:39.133Z,2.40
2019-02-23T13:57:52.222Z,3.00
2019-02-23T14:01:11.563Z,3.77
2019-02-23T14:04:11.754Z,3.00
2019-02-23T14:07:16.188Z,1.90
2019-02-23T14:10:30.884Z,1.60
2019-02-23T14:13:27.061Z,1.70
2019-02-23T14:16:30.049Z,1.97
2019-02-23T14:19:12.431Z,1.30
2019-02-23T14:22:16.295Z,1.60
2019-02-23T14:25:41.009Z,1.37
2019-02-23T14:28:57.567Z,3.73
2019-02-23T14:31:33.213Z,4.73
2019-02-23T14:34:26.847Z,5.60
2019-02-23T14:37:20.147Z,6.67
2019-02-23T14:40:35.303Z,8.30
2019-02-23T14:43:26.964Z,8.20
2019-02-23T14:46:51.580Z,7.80
2019-02-23T14:49:54.894Z,7.47
2019-02-23T14:52:49.394Z,7.70
2019-02-23T14:55:44.772Z,7.90
2019-02-23T14:58:51.393Z,6.77
2019-02-23T15:01:43.390Z,7.80
2019-02-23T15:05:08.892Z,7.47
2019-02-23T15:08:14.427Z,7.30
2019-02-23T15:11:16.340Z,4.97
2019-02-23T15:14:26.425Z,5.57
2019-02-23T15:17:23.465Z,4.90
2019-02-23T15:20:28.070Z,5.50
2019-02-23T15:23:14.810Z,5.07
2019-02-23T15:26:19.644Z,4.60
2019-02-23T15:29:29.763Z,3.20
2019-02-23T15:32:38.740Z,3.90
2019-02-23T15:35:44.041Z,3.87
2019-02-23T15:38:56.326Z,2.70
2019-02-23T15:42:17.989Z,2.40
2019-02-23T15:45:26.108Z,2.70
2019-02-23T15:48:38.988Z,3.43
2019-02-23T15:51:07.876Z,3.30
2019-02-23T15:53:36.732Z,4.00
2019-02-23T15:56:05.563Z,3.67
2019-02-23T15:58:34.790Z,5.20
2019-02-23T16:01:03.942Z,4.53
2019-02-23T16:03:32.862Z,4.43
2019-02-23T16:06:01.982Z,4.77
2019-02-23T16:08:30.878Z,4.70
2019-02-23T16:10:59.713Z,5.10
2019-02-23T16:13:28.672Z,5.27
2019-02-23T16:15:57.665Z,4.90
2019-02-23T16:18:27.326Z,4.67
2019-02-23T16:20:56.144Z,4.23
2019-02-23T16:23:36.796Z,4.50
2019-02-23T16:25:55.789Z,3.90
2019-02-23T16:28:24.727Z,5.07
2019-02-23T16:30:53.958Z,5.50
2019-02-23T16:33:22.742Z,4.90
2019-02-23T16:35:51.551Z,4.67
2019-02-23T16:38:20.358Z,4.23
2019-02-23T16:40:50.412Z,4.30
2019-02-23T16:43:19.503Z,4.50
2019-02-23T16:45:54.258Z,4.50
2019-02-23T16:48:23.117Z,4.50
2019-02-23T16:50:51.896Z,7.47
2019-02-23T16:53:20.772Z,5.10
2019-02-23T16:55:51.162Z,4.10
2019-02-23T16:58:20.163Z,11.40
2019-02-23T17:00:48.999Z,6.43
2019-02-23T17:03:17.915Z,4.83
2019-02-23T17:05:46.816Z,1.80
2019-02-23T17:08:15.744Z,1.73
2019-02-23T17:10:44.661Z,4.07
2019-02-23T17:13:13.581Z,1.40
2019-02-23T17:15:42.598Z,13.83
2019-02-23T17:18:11.529Z,4.03
2019-02-23T17:20:40.421Z,2.60
2019-02-23T17:23:09.239Z,2.30
2019-02-23T17:25:38.033Z,5.43
2019-02-23T17:28:07.222Z,4.60
2019-02-23T17:30:36.139Z,5.10
2019-02-23T17:33:05.066Z,10.07
2019-02-23T17:35:33.870Z,15.23
2019-02-23T17:38:15.424Z,9.93
2019-02-23T17:40:34.027Z,9.53
2019-02-23T17:43:02.829Z,5.13
2019-02-23T17:45:31.769Z,5.97
2019-02-23T17:48:00.690Z,5.30
2019-02-23T17:50:29.615Z,8.27
2019-02-23T17:52:58.595Z,6.00
2019-02-23T17:55:27.602Z,5.37
2019-02-23T17:57:56.606Z,4.77
2019-02-23T18:00:25.599Z,4.63
2019-02-23T18:02:54.474Z,4.30
2019-02-23T18:05:23.358Z,4.03
2019-02-23T18:07:52.281Z,4.20
2019-02-23T18:10:21.085Z,11.27
2019-02-23T18:12:50.023Z,5.50
2019-02-23T18:15:18.949Z,6.23
2019-02-23T18:17:47.803Z,3.93
2019-02-23T18:20:16.629Z,4.83
2019-02-23T18:22:45.491Z,6.20
2019-02-23T18:25:14.307Z,5.40
2019-02-23T18:27:43.181Z,7.60
2019-02-23T18:30:14.025Z,9.00
2019-02-23T18:32:42.766Z,9.87
2019-02-23T18:35:11.687Z,11.00
2019-02-23T18:37:40.701Z,9.93
2019-02-23T18:40:09.734Z,6.00
2019-02-23T18:42:38.616Z,4.07
2019-02-23T18:45:07.927Z,4.60
2019-02-23T18:47:36.885Z,5.00
2019-02-23T18:50:05.957Z,4.07
2019-02-23T18:52:34.847Z,4.33
2019-02-23T18:55:04.139Z,4.30
2019-02-23T18:57:35.425Z,4.77
2019-02-23T19:00:13.709Z,5.30
2019-02-23T19:02:46.175Z,4.37
2019-02-23T19:05:18.498Z,3.70
2019-02-23T19:07:47.621Z,2.60
2019-02-23T19:10:16.665Z,3.30
2019-02-23T19:12:45.531Z,3.70
2019-02-23T19:15:14.587Z,3.25
2019-02-23T19:17:43.401Z,7.30
2019-02-23T19:20:12.606Z,4.60
2019-02-23T19:22:42.232Z,5.00
2019-02-23T19:25:11.440Z,4.10
2019-02-23T19:27:40.356Z,4.67
2019-02-23T19:30:10.712Z,4.22
2019-02-23T19:32:39.671Z,6.53
2019-02-23T19:35:08.711Z,6.90
2019-02-23T19:37:37.858Z,4.25
2019-02-23T19:40:07.026Z,4.30
2019-02-23T19:42:35.921Z,6.53
2019-02-23T19:45:05.357Z,11.33
2019-02-23T19:47:34.966Z,15.43
2019-02-23T19:50:08.946Z,12.43
2019-02-23T19:52:37.885Z,8.13
2019-02-23T19:55:08.159Z,7.30
2019-02-23T19:57:36.994Z,8.25
2019-02-23T20:00:06.201Z,10.20
2019-02-23T20:02:35.238Z,6.40
2019-02-23T20:05:04.579Z,5.45
2019-02-23T20:07:33.522Z,4.40
2019-02-23T20:10:02.468Z,5.35
2019-02-23T20:12:32.395Z,4.90
2019-02-23T20:15:01.309Z,6.28
2019-02-23T20:17:30.190Z,5.87
2019-02-23T20:19:59.203Z,6.40
2019-02-23T20:22:28.179Z,2.93
2019-02-23T20:24:57.036Z,3.55
2019-02-23T20:27:25.935Z,3.52
2019-02-23T20:29:54.814Z,3.47
2019-02-23T20:32:23.715Z,3.52
2019-02-23T20:34:52.633Z,2.80
2019-02-23T20:37:21.666Z,3.47
2019-02-23T20:39:50.614Z,3.10
2019-02-23T20:42:19.722Z,3.10
2019-02-23T20:44:48.550Z,2.70
2019-02-23T20:47:17.415Z,3.75
2019-02-23T20:49:46.370Z,4.37
2019-02-23T20:52:15.232Z,3.50
2019-02-23T20:54:44.192Z,5.05
2019-02-23T20:57:13.990Z,4.40
2019-02-23T20:59:43.185Z,5.78
2019-02-23T21:02:11.962Z,3.77
2019-02-23T21:04:40.789Z,4.03
2019-02-23T21:07:09.701Z,2.83
2019-02-23T21:09:38.730Z,3.22
2019-02-23T21:12:07.646Z,3.92
2019-02-23T21:14:36.497Z,3.40
2019-02-23T21:17:05.366Z,4.43
2019-02-23T21:19:34.221Z,6.30
2019-02-23T21:22:03.323Z,3.92
2019-02-23T21:24:32.256Z,3.87
2019-02-23T21:27:01.150Z,3.50
2019-02-23T21:29:31.733Z,3.47
2019-02-23T21:32:00.605Z,3.55
2019-02-23T21:34:29.519Z,3.62
2019-02-23T21:36:58.361Z,5.08
2019-02-23T21:39:27.321Z,4.00
2019-02-23T21:41:56.183Z,4.10
2019-02-23T21:44:25.048Z,4.58
2019-02-23T21:46:53.893Z,5.10
2019-02-23T21:49:22.746Z,4.87
2019-02-23T21:51:51.554Z,4.90
2019-02-23T21:54:20.433Z,5.53
2019-02-23T21:56:49.325Z,5.55
2019-02-23T21:59:18.175Z,3.80
2019-02-23T22:01:46.938Z,5.20
2019-02-23T22:04:15.721Z,4.67
2019-02-23T22:06:44.597Z,6.03
2019-02-23T22:09:13.462Z,4.53
2019-02-23T22:11:45.126Z,3.85
2019-02-23T22:14:13.968Z,4.62
2019-02-23T22:16:42.736Z,5.58
2019-02-23T22:19:14.543Z,5.15
2019-02-23T22:21:43.382Z,5.78
2019-02-23T22:24:12.141Z,4.95
2019-02-23T22:26:40.929Z,4.55
2019-02-23T22:29:09.694Z,5.53
2019-02-23T22:31:38.645Z,5.92
2019-02-23T22:34:07.511Z,6.30
2019-02-23T22:36:36.414Z,7.00
2019-02-23T22:39:07.177Z,7.35
2019-02-23T22:41:37.337Z,8.20
2019-02-23T22:44:06.248Z,7.42
2019-02-23T22:46:35.086Z,5.75
2019-02-23T22:49:04.015Z,5.53
2019-02-23T22:51:32.818Z,6.20
2019-02-23T22:54:01.585Z,6.53
2019-02-23T22:56:30.496Z,6.30
2019-02-23T22:58:59.272Z,6.40
2019-02-23T23:01:28.125Z,7.60
2019-02-23T23:03:56.901Z,8.18
2019-02-23T23:06:25.787Z,7.17
2019-02-23T23:08:54.543Z,6.50
2019-02-23T23:11:23.340Z,8.53
2019-02-23T23:13:52.185Z,8.55
2019-02-23T23:16:20.957Z,8.20
2019-02-23T23:18:49.732Z,9.83
2019-02-23T23:21:21.115Z,8.40
2019-02-23T23:23:49.878Z,8.70
2019-02-23T23:26:18.737Z,8.33
2019-02-23T23:28:47.513Z,9.45
2019-02-23T23:31:16.304Z,9.90
2019-02-23T23:33:45.152Z,8.40
2019-02-23T23:36:16.981Z,10.15
2019-02-23T23:38:45.901Z,8.93
2019-02-23T23:41:14.833Z,8.78
2019-02-23T23:43:43.639Z,9.33
2019-02-23T23:46:12.447Z,9.35
2019-02-23T23:48:41.272Z,8.25
2019-02-23T23:51:10.240Z,9.08
2019-02-23T23:53:40.292Z,9.03
2019-02-23T23:56:09.124Z,9.05
2019-02-23T23:58:37.896Z,8.65
